Time;durP1;ratioP1;P1;durP2;ratioP2;P2;SDS_P1;SDS_P2;PMS_P1;PMS_P2;Temp;Humidity;BMP_temperature;BMP_pressure;BME280_temperature;BME280_humidity;BME280_pressure;Samples;Min_cycle;Max_cycle;Signal;HPM_P1;HPM_P2
2022/02/07 00:01:36;;;;;;;9.10;5.03;;;;;;;;;;1785731;79;22940;-71
2022/02/07 00:04:00;;;;;;;8.53;3.90;;;;;;;;;;1752052;82;21049;-71
2022/02/07 00:06:25;;;;;;;7.05;3.27;;;;;;;;;;1750162;82;21052;-72
2022/02/07 00:08:53;;;;;;;7.55;4.03;;;;;;;;;;1735332;82;21547;-71
2022/02/07 00:11:21;;;;;;;6.67;3.83;;;;;;;;;;1747804;82;21040;-72
2022/02/07 00:13:47;;;;;;;9.08;4.80;;;;;;;;;;1750412;82;21009;-71
2022/02/07 00:16:15;;;;;;;6.85;3.67;;;;;;;;;;1744256;82;20993;-72
2022/02/07 00:18:41;;;;;;;6.15;3.30;;;;;;;;;;1752520;82;21056;-71
2022/02/07 00:21:09;;;;;;;7.37;4.78;;;;;;;;;;1752496;82;21091;-71
2022/02/07 00:23:35;;;;;;;6.05;3.50;;;;;;;;;;1734450;82;21095;-70
2022/02/07 00:26:01;;;;;;;7.67;4.67;;;;;;;;;;1752318;82;21008;-70
2022/02/07 00:28:28;;;;;;;7.80;3.67;;;;;;;;;;1744990;82;21021;-70
2022/02/07 00:30:54;;;;;;;8.18;5.25;;;;;;;;;;1741913;82;21543;-70
2022/02/07 00:33:20;;;;;;;6.60;3.65;;;;;;;;;;1731072;82;21040;-70
2022/02/07 00:35:47;;;;;;;6.78;4.30;;;;;;;;;;1744521;82;21504;-70
2022/02/07 00:38:18;;;;;;;6.72;3.90;;;;;;;;;;1741464;82;21563;-70
2022/02/07 00:43:39;;;;;;;4.92;2.80;;;;;;;;;;1724013;82;21028;-70
2022/02/07 00:46:05;;;;;;;6.97;4.35;;;;;;;;;;1662236;85;21065;-69
2022/02/07 00:48:26;;;;;;;5.97;3.35;;;;;;;;;;1694184;84;21051;-69
2022/02/07 00:50:56;;;;;;;9.05;4.83;;;;;;;;;;1685191;84;21562;-71
2022/02/07 00:53:24;;;;;;;5.50;3.12;;;;;;;;;;1704100;84;21016;-70
2022/02/07 00:55:50;;;;;;;7.28;4.83;;;;;;;;;;1706584;84;21033;-70
2022/02/07 00:58:16;;;;;;;7.97;4.67;;;;;;;;;;1707159;84;21055;-70
2022/02/07 01:00:42;;;;;;;6.60;4.15;;;;;;;;;;1690601;84;21615;-69
2022/02/07 01:03:09;;;;;;;5.05;3.30;;;;;;;;;;1687997;85;21124;-70
2022/02/07 01:05:36;;;;;;;6.33;3.70;;;;;;;;;;1691785;85;21068;-69
2022/02/07 01:08:05;;;;;;;6.25;4.10;;;;;;;;;;1682992;85;21540;-70
2022/02/07 01:10:43;;;;;;;6.95;3.75;;;;;;;;;;1664398;85;21132;-70
2022/02/07 01:13:22;;;;;;;4.83;2.98;;;;;;;;;;1675958;84;21060;-70
2022/02/07 01:16:11;;;;;;;6.12;4.03;;;;;;;;;;1672248;85;21616;-70
2022/02/07 01:46:00;;;;;;;5.33;3.67;;;;;;;;;;1730306;82;20993;-70
2022/02/07 01:48:39;;;;;;;6.60;3.25;;;;;;;;;;1720256;82;21013;-70
2022/02/07 01:55:59;;;;;;;7.28;4.25;;;;;;;;;;1709222;84;21065;-70
2022/02/07 01:58:24;;;;;;;5.92;3.58;;;;;;;;;;1712011;82;21099;-69
2022/02/07 02:03:46;;;;;;;6.65;3.92;;;;;;;;;;1718004;79;75324;-73
2022/02/07 02:06:14;;;;;;;7.00;3.67;;;;;;;;;;1713212;83;21077;-72
2022/02/07 02:08:42;;;;;;;7.20;4.33;;;;;;;;;;1691923;84;21048;-72
2022/02/07 02:11:08;;;;;;;6.12;3.58;;;;;;;;;;1690816;83;21479;-72
2022/02/07 02:16:21;;;;;;;6.55;4.00;;;;;;;;;;1675827;85;21036;-72
2022/02/07 02:19:19;;;;;;;6.45;3.40;;;;;;;;;;1714620;81;20995;-72
2022/02/07 02:38:21;;;;;;;6.75;3.60;;;;;;;;;;1676914;84;21086;-72
2022/02/07 02:45:40;;;;;;;8.58;3.98;;;;;;;;;;1725721;83;21045;-72
2022/02/07 02:48:09;;;;;;;10.23;5.15;;;;;;;;;;1722043;81;20995;-72
2022/02/07 02:50:35;;;;;;;10.28;4.97;;;;;;;;;;1676147;84;21563;-72
2022/02/07 02:53:10;;;;;;;7.20;4.05;;;;;;;;;;1725579;82;21112;-72
2022/02/07 02:55:38;;;;;;;8.50;4.20;;;;;;;;;;1725534;83;21014;-72
2022/02/07 02:58:05;;;;;;;6.85;4.47;;;;;;;;;;1675511;84;21548;-73
2022/02/07 03:00:32;;;;;;;7.20;4.55;;;;;;;;;;1725064;83;21022;-73
2022/02/07 03:03:02;;;;;;;7.10;3.65;;;;;;;;;;1684746;84;21095;-73
2022/02/07 03:05:29;;;;;;;7.22;4.87;;;;;;;;;;1755101;82;21022;-73
2022/02/07 03:07:56;;;;;;;8.95;5.05;;;;;;;;;;1704386;82;21539;-73
2022/02/07 03:11:12;;;;;;;7.15;4.10;;;;;;;;;;1755485;80;20972;-73
2022/02/07 03:18:22;;;;;;;6.78;4.70;;;;;;;;;;1755633;80;21011;-72
2022/02/07 03:20:49;;;;;;;7.10;3.92;;;;;;;;;;1755596;80;20953;-71
2022/02/07 03:23:15;;;;;;;8.13;5.03;;;;;;;;;;1704416;84;21096;-72
2022/02/07 03:25:41;;;;;;;7.95;4.87;;;;;;;;;;1725620;82;21027;-72
2022/02/07 03:28:08;;;;;;;10.28;5.17;;;;;;;;;;1755912;80;20979;-73
2022/02/07 03:30:36;;;;;;;6.90;3.67;;;;;;;;;;1755439;80;20988;-72
2022/02/07 03:33:02;;;;;;;7.83;4.55;;;;;;;;;;1755617;82;21012;-72
2022/02/07 03:35:28;;;;;;;11.50;4.95;;;;;;;;;;1704282;84;21023;-72
2022/02/07 03:37:54;;;;;;;8.15;4.28;;;;;;;;;;1686224;82;21012;-72
2022/02/07 03:40:21;;;;;;;8.80;4.28;;;;;;;;;;1755609;80;21034;-72
2022/02/07 03:42:47;;;;;;;7.35;3.98;;;;;;;;;;1704398;84;21031;-72
2022/02/07 03:45:13;;;;;;;6.35;3.90;;;;;;;;;;1755494;82;20993;-72
2022/02/07 03:47:41;;;;;;;6.15;3.42;;;;;;;;;;1704008;82;21060;-72
2022/02/07 03:50:07;;;;;;;6.62;3.52;;;;;;;;;;1755638;82;21067;-73
2022/02/07 03:52:36;;;;;;;7.40;4.95;;;;;;;;;;1704590;84;21044;-73
2022/02/07 03:55:03;;;;;;;7.55;4.78;;;;;;;;;;1756118;82;20963;-72
2022/02/07 03:57:30;;;;;;;7.15;4.33;;;;;;;;;;1704057;84;21094;-72
2022/02/07 03:59:56;;;;;;;6.87;4.47;;;;;;;;;;1756958;80;21004;-72
2022/02/07 04:02:22;;;;;;;6.10;4.10;;;;;;;;;;1755816;80;21114;-72
2022/02/07 04:04:55;;;;;;;6.47;4.25;;;;;;;;;;1781550;80;21447;-72
2022/02/07 04:07:16;;;;;;;5.90;3.87;;;;;;;;;;1794205;80;21019;-72
2022/02/07 04:09:49;;;;;;;7.55;3.90;;;;;;;;;;1728483;82;21065;-72
2022/02/07 04:12:18;;;;;;;7.50;4.05;;;;;;;;;;1702902;83;21023;-73
2022/02/07 04:14:43;;;;;;;6.65;3.85;;;;;;;;;;1697784;84;21096;-72
2022/02/07 04:17:18;;;;;;;6.20;3.62;;;;;;;;;;1726399;83;21525;-73
2022/02/07 04:19:40;;;;;;;5.55;2.87;;;;;;;;;;1725245;82;21046;-71
2022/02/07 04:22:09;;;;;;;6.70;3.75;;;;;;;;;;1725830;83;20976;-72
2022/02/07 04:24:42;;;;;;;8.48;4.78;;;;;;;;;;1716298;83;21062;-73
2022/02/07 04:27:09;;;;;;;8.73;4.25;;;;;;;;;;1723633;83;21026;-72
2022/02/07 04:29:37;;;;;;;10.23;3.98;;;;;;;;;;1725959;82;21042;-72
2022/02/07 04:32:05;;;;;;;9.08;6.15;;;;;;;;;;1726006;83;20991;-72
2022/02/07 04:34:31;;;;;;;9.63;5.15;;;;;;;;;;1725713;83;20994;-72
2022/02/07 04:36:58;;;;;;;6.10;3.85;;;;;;;;;;1725693;83;21034;-72
2022/02/07 04:39:25;;;;;;;5.85;3.85;;;;;;;;;;1725964;82;20995;-72
2022/02/07 04:41:55;;;;;;;7.47;4.30;;;;;;;;;;1702707;83;21062;-72
2022/02/07 04:44:32;;;;;;;4.53;3.05;;;;;;;;;;1715195;82;20955;-72
2022/02/07 04:49:42;;;;;;;8.65;4.12;;;;;;;;;;1710014;83;20965;-72
2022/02/07 04:52:07;;;;;;;5.92;3.72;;;;;;;;;;1695769;83;21082;-72
2022/02/07 05:02:23;;;;;;;9.68;5.25;;;;;;;;;;1727987;83;21074;-72
2022/02/07 05:04:39;;;;;;;7.50;4.00;;;;;;;;;;1714942;82;21082;-71
2022/02/07 05:15:20;;;;;;;6.58;4.05;;;;;;;;;;1704056;84;21011;-72
2022/02/07 05:17:48;;;;;;;8.75;4.47;;;;;;;;;;1712161;84;21071;-72
2022/02/07 05:20:18;;;;;;;7.08;3.65;;;;;;;;;;1689688;82;21621;-71
2022/02/07 05:23:03;;;;;;;7.17;4.42;;;;;;;;;;1715389;82;21043;-71
2022/02/07 05:25:48;;;;;;;5.47;3.60;;;;;;;;;;1719954;82;21040;-71
2022/02/07 05:28:25;;;;;;;5.83;3.08;;;;;;;;;;1706855;82;21082;-73
2022/02/07 05:30:55;;;;;;;8.65;4.50;;;;;;;;;;1707076;82;21015;-73
2022/02/07 05:33:23;;;;;;;6.75;3.87;;;;;;;;;;1725026;82;21039;-73
2022/02/07 05:35:51;;;;;;;7.37;4.70;;;;;;;;;;1697353;82;21562;-73
2022/02/07 05:38:37;;;;;;;5.95;3.72;;;;;;;;;;1712865;82;21066;-73
2022/02/07 05:41:20;;;;;;;9.53;4.60;;;;;;;;;;1652074;85;21060;-73
2022/02/07 05:43:50;;;;;;;7.83;4.55;;;;;;;;;;1692138;82;21040;-73
2022/02/07 05:46:20;;;;;;;7.50;4.58;;;;;;;;;;1711521;84;21203;-73
2022/02/07 05:49:04;;;;;;;6.92;3.65;;;;;;;;;;1717898;82;21559;-73
2022/02/07 05:51:50;;;;;;;6.53;3.60;;;;;;;;;;1713014;82;21398;-73
2022/02/07 05:54:18;;;;;;;8.25;4.83;;;;;;;;;;1717002;82;21067;-70
2022/02/07 05:57:01;;;;;;;6.70;3.90;;;;;;;;;;1713283;82;20976;-71
2022/02/07 05:59:35;;;;;;;8.03;4.87;;;;;;;;;;1714474;82;21440;-72
2022/02/07 06:02:04;;;;;;;6.33;3.60;;;;;;;;;;1716387;83;21128;-71
2022/02/07 06:04:31;;;;;;;7.33;3.70;;;;;;;;;;1718936;83;21075;-71
2022/02/07 06:06:57;;;;;;;6.37;4.17;;;;;;;;;;1755447;82;21039;-72
2022/02/07 06:09:24;;;;;;;6.10;3.70;;;;;;;;;;1704472;83;21044;-71
2022/02/07 06:11:52;;;;;;;5.60;4.22;;;;;;;;;;1755581;82;21080;-72
2022/02/07 06:14:18;;;;;;;8.50;5.03;;;;;;;;;;1755471;80;21321;-72
2022/02/07 06:16:46;;;;;;;4.62;3.00;;;;;;;;;;1755576;82;21039;-72
2022/02/07 06:19:12;;;;;;;7.50;3.58;;;;;;;;;;1686867;84;21471;-72
2022/02/07 06:21:40;;;;;;;7.37;4.75;;;;;;;;;;1755348;82;21007;-71
2022/02/07 06:24:06;;;;;;;7.25;5.22;;;;;;;;;;1704397;84;21015;-72
2022/02/07 06:26:33;;;;;;;8.05;5.15;;;;;;;;;;1755693;80;21451;-73
2022/02/07 06:29:00;;;;;;;8.35;4.28;;;;;;;;;;1704257;84;21547;-73
2022/02/07 06:31:27;;;;;;;7.53;4.78;;;;;;;;;;1755517;82;21022;-72
2022/02/07 06:33:56;;;;;;;6.83;4.35;;;;;;;;;;1704189;84;21020;-73
2022/02/07 06:36:22;;;;;;;9.05;4.62;;;;;;;;;;1756599;80;21000;-72
2022/02/07 06:38:50;;;;;;;7.47;4.90;;;;;;;;;;1694232;84;21075;-72
2022/02/07 06:41:16;;;;;;;10.30;4.20;;;;;;;;;;1693477;85;21593;-73
2022/02/07 06:43:43;;;;;;;7.90;4.83;;;;;;;;;;1755203;80;21046;-76
2022/02/07 06:46:11;;;;;;;7.00;3.58;;;;;;;;;;1755533;82;21604;-72
2022/02/07 06:48:37;;;;;;;5.40;4.05;;;;;;;;;;1704237;83;21036;-72
2022/02/07 06:51:05;;;;;;;7.25;4.40;;;;;;;;;;1755368;80;21059;-72
2022/02/07 06:53:32;;;;;;;7.72;4.30;;;;;;;;;;1704214;83;21012;-73
2022/02/07 06:55:58;;;;;;;9.50;5.10;;;;;;;;;;1755341;80;21023;-72
2022/02/07 06:58:25;;;;;;;8.50;4.08;;;;;;;;;;1755485;82;21038;-73
2022/02/07 07:00:52;;;;;;;6.45;4.50;;;;;;;;;;1704246;83;21035;-72
2022/02/07 07:03:21;;;;;;;7.72;4.37;;;;;;;;;;1755135;80;21062;-73
2022/02/07 07:05:51;;;;;;;9.18;5.80;;;;;;;;;;1704026;83;21095;-71
2022/02/07 07:08:17;;;;;;;8.53;4.80;;;;;;;;;;1755784;82;21034;-70
2022/02/07 07:10:46;;;;;;;7.90;4.08;;;;;;;;;;1704299;84;21519;-70
2022/02/07 07:13:17;;;;;;;7.47;5.60;;;;;;;;;;1755217;82;21037;-70
2022/02/07 07:15:49;;;;;;;7.25;4.30;;;;;;;;;;1704005;84;21071;-70
2022/02/07 07:18:10;;;;;;;8.30;5.30;;;;;;;;;;1754161;82;21030;-70
2022/02/07 07:20:39;;;;;;;8.33;3.90;;;;;;;;;;1704344;84;21081;-70
2022/02/07 07:23:06;;;;;;;11.45;6.12;;;;;;;;;;1755688;80;20976;-72
2022/02/07 07:25:33;;;;;;;7.33;4.12;;;;;;;;;;1704303;84;21039;-73
2022/02/07 07:28:06;;;;;;;10.45;5.95;;;;;;;;;;1755487;82;21027;-73
2022/02/07 07:30:37;;;;;;;9.68;4.58;;;;;;;;;;1703344;83;21024;-72
2022/02/07 07:33:04;;;;;;;8.90;5.37;;;;;;;;;;1754880;82;21508;-72
2022/02/07 07:35:31;;;;;;;7.47;3.95;;;;;;;;;;1704275;84;21317;-71
2022/02/07 07:37:58;;;;;;;9.05;6.00;;;;;;;;;;1755552;80;21051;-73
2022/02/07 07:40:24;;;;;;;7.95;4.78;;;;;;;;;;1704211;84;21056;-72
2022/02/07 07:42:54;;;;;;;7.72;4.12;;;;;;;;;;1755553;82;20999;-73
2022/02/07 07:45:58;;;;;;;9.30;5.72;;;;;;;;;;1755492;82;21051;-72
2022/02/07 07:48:22;;;;;;;8.15;4.60;;;;;;;;;;1702356;84;21071;-71
2022/02/07 08:04:15;;;;;;;10.40;5.85;;;;;;;;;;1704233;82;21630;-72
2022/02/07 08:07:42;;;;;;;10.20;4.87;;;;;;;;;;1762802;81;21002;-71
2022/02/07 08:11:47;;;;;;;10.20;4.92;;;;;;;;;;1723636;81;21039;-72
2022/02/07 08:14:13;;;;;;;8.10;3.98;;;;;;;;;;1763634;81;21015;-72
2022/02/07 08:16:41;;;;;;;7.85;4.58;;;;;;;;;;1727686;83;21037;-72
2022/02/07 08:19:08;;;;;;;7.35;4.53;;;;;;;;;;1725700;83;21537;-71
2022/02/07 08:21:34;;;;;;;8.28;4.42;;;;;;;;;;1725796;83;21503;-71
2022/02/07 08:24:03;;;;;;;8.20;4.83;;;;;;;;;;1725546;83;21011;-71
2022/02/07 08:26:29;;;;;;;7.37;3.67;;;;;;;;;;1725860;83;21035;-74
2022/02/07 08:28:55;;;;;;;7.78;4.87;;;;;;;;;;1725878;83;20983;-72
2022/02/07 08:31:22;;;;;;;5.67;3.58;;;;;;;;;;1726011;83;21006;-70
2022/02/07 08:33:49;;;;;;;6.55;3.70;;;;;;;;;;1725771;83;21052;-71
2022/02/07 08:36:16;;;;;;;9.53;4.65;;;;;;;;;;1727936;83;21051;-70
2022/02/07 08:38:42;;;;;;;6.80;4.47;;;;;;;;;;1728024;83;21013;-70
2022/02/07 08:41:08;;;;;;;6.42;4.15;;;;;;;;;;1727922;83;21028;-71
2022/02/07 08:43:35;;;;;;;8.98;4.25;;;;;;;;;;1728020;83;21523;-71
2022/02/07 08:46:00;;;;;;;7.90;4.33;;;;;;;;;;1727998;83;20984;-71
2022/02/07 08:48:27;;;;;;;8.53;3.98;;;;;;;;;;1727785;83;21094;-71
2022/02/07 08:50:55;;;;;;;4.80;3.45;;;;;;;;;;1727992;83;21023;-71
2022/02/07 08:53:23;;;;;;;7.37;4.45;;;;;;;;;;1727848;83;21582;-71
2022/02/07 08:55:52;;;;;;;6.05;4.03;;;;;;;;;;1728140;83;21020;-68
2022/02/07 08:58:19;;;;;;;6.92;3.92;;;;;;;;;;1727959;83;21024;-69
2022/02/07 09:00:53;;;;;;;6.65;4.20;;;;;;;;;;1727784;83;21521;-69
2022/02/07 09:08:37;;;;;;;11.90;5.00;;;;;;;;;;1696878;83;21039;-69
2022/02/07 09:10:54;;;;;;;4.80;3.42;;;;;;;;;;1696358;84;21075;-71
2022/02/07 09:13:26;;;;;;;9.03;4.60;;;;;;;;;;1696653;84;21028;-71
2022/02/07 09:18:22;;;;;;;;;;;;;;;;;;1726113;83;21012;-71
2022/02/07 09:20:49;;;;;;;10.32;4.80;;;;;;;;;;1723689;83;20223;-71
2022/02/07 09:23:17;;;;;;;8.38;5.20;;;;;;;;;;1725287;83;21565;-71
2022/02/07 09:25:43;;;;;;;7.55;4.92;;;;;;;;;;1723447;83;21050;-71
2022/02/07 09:28:09;;;;;;;7.85;4.47;;;;;;;;;;1723931;83;21622;-70
2022/02/07 09:30:36;;;;;;;8.20;4.75;;;;;;;;;;1723555;83;21023;-71
2022/02/07 09:33:02;;;;;;;10.08;5.08;;;;;;;;;;1723866;83;21042;-71
2022/02/07 09:35:29;;;;;;;7.08;4.00;;;;;;;;;;1723728;83;21082;-71
2022/02/07 09:37:55;;;;;;;7.90;4.00;;;;;;;;;;1723599;83;20971;-72
2022/02/07 09:40:23;;;;;;;9.40;5.10;;;;;;;;;;1723740;83;20991;-70
2022/02/07 09:42:56;;;;;;;8.88;4.03;;;;;;;;;;1723525;83;21179;-69
2022/02/07 09:45:30;;;;;;;5.80;3.52;;;;;;;;;;1722960;83;21529;-69
2022/02/07 09:47:48;;;;;;;9.50;5.22;;;;;;;;;;1720894;83;21010;-70
2022/02/07 09:50:14;;;;;;;8.73;4.75;;;;;;;;;;1667302;86;21519;-70
2022/02/07 09:52:39;;;;;;;13.00;5.87;;;;;;;;;;1723723;83;21061;-71
2022/02/07 09:55:08;;;;;;;10.32;5.40;;;;;;;;;;1723698;83;21015;-70
2022/02/07 09:57:33;;;;;;;7.92;4.42;;;;;;;;;;1723397;83;21023;-71
2022/02/07 10:00:05;;;;;;;9.25;5.05;;;;;;;;;;1723778;83;21518;-71
2022/02/07 10:02:36;;;;;;;9.40;5.55;;;;;;;;;;1722953;82;21085;-70
2022/02/07 10:05:03;;;;;;;12.75;5.97;;;;;;;;;;1716291;83;20999;-70
2022/02/07 10:07:39;;;;;;;9.23;5.22;;;;;;;;;;1696216;83;21010;-70
2022/02/07 10:12:58;;;;;;;7.45;4.85;;;;;;;;;;1677243;83;21441;-70
2022/02/07 10:15:25;;;;;;;7.55;5.10;;;;;;;;;;1722811;83;21074;-70
2022/02/07 10:34:28;;;;;;;9.25;4.92;;;;;;;;;;1714389;83;21045;-70
2022/02/07 10:37:35;;;;;;;9.75;5.47;;;;;;;;;;1693500;84;21111;-69
2022/02/07 10:42:00;;;;;;;19.73;7.90;;;;;;;;;;1697188;84;21021;-69
2022/02/07 10:44:09;;;;;;;10.53;6.67;;;;;;;;;;1720460;83;21018;-69
2022/02/07 10:46:35;;;;;;;9.85;5.08;;;;;;;;;;1724955;83;20987;-69
2022/02/07 10:49:02;;;;;;;10.78;5.28;;;;;;;;;;1725970;83;21059;-70
2022/02/07 10:51:32;;;;;;;14.45;6.58;;;;;;;;;;1725093;83;20991;-70
2022/02/07 10:53:59;;;;;;;14.47;7.35;;;;;;;;;;1726097;83;21478;-69
2022/02/07 10:56:31;;;;;;;11.97;6.70;;;;;;;;;;1725865;83;21605;-69
2022/02/07 10:58:55;;;;;;;16.90;7.17;;;;;;;;;;1725385;83;21050;-70
2022/02/07 11:01:38;;;;;;;12.00;5.90;;;;;;;;;;1725765;83;21022;-70
2022/02/07 11:03:56;;;;;;;12.58;6.65;;;;;;;;;;1723081;83;21069;-70
2022/02/07 11:06:27;;;;;;;10.55;5.42;;;;;;;;;;1725275;83;21455;-70
2022/02/07 11:09:03;;;;;;;10.55;5.42;;;;;;;;;;1724710;83;21034;-70
2022/02/07 11:16:50;;;;;;;11.18;6.37;;;;;;;;;;1725551;83;21043;-70
2022/02/07 11:19:34;;;;;;;8.68;4.85;;;;;;;;;;1724275;83;21577;-70
2022/02/07 11:22:07;;;;;;;13.50;7.25;;;;;;;;;;1723017;83;21510;-70
2022/02/07 11:24:58;;;;;;;8.55;5.10;;;;;;;;;;1695701;83;21610;-68
2022/02/07 11:27:34;;;;;;;13.28;6.37;;;;;;;;;;1721995;82;21573;-69
2022/02/07 11:29:59;;;;;;;10.18;4.37;;;;;;;;;;1708872;83;21083;-69
2022/02/07 11:32:34;;;;;;;11.35;6.40;;;;;;;;;;1690862;83;21054;-72
2022/02/07 11:35:05;;;;;;;7.60;4.72;;;;;;;;;;1659708;86;21074;-71
2022/02/07 11:37:31;;;;;;;8.83;4.80;;;;;;;;;;1669296;86;21056;-70
2022/02/07 11:39:57;;;;;;;8.68;4.67;;;;;;;;;;1698937;84;21025;-70
2022/02/07 11:42:23;;;;;;;12.58;5.40;;;;;;;;;;1669290;86;21064;-71
2022/02/07 11:44:54;;;;;;;8.10;4.42;;;;;;;;;;1702383;83;21062;-70
2022/02/07 11:47:25;;;;;;;9.15;6.12;;;;;;;;;;1725775;83;20982;-70
2022/02/07 11:49:52;;;;;;;10.00;5.33;;;;;;;;;;1726153;83;21042;-71
2022/02/07 11:52:28;;;;;;;8.98;5.03;;;;;;;;;;1717887;82;20996;-70
2022/02/07 11:54:57;;;;;;;9.28;5.70;;;;;;;;;;1669472;86;21044;-70
2022/02/07 11:57:25;;;;;;;11.00;5.40;;;;;;;;;;1710472;83;21545;-70
2022/02/07 11:59:57;;;;;;;7.80;4.65;;;;;;;;;;1703639;83;21530;-69
2022/02/07 12:02:25;;;;;;;10.50;5.40;;;;;;;;;;1725934;82;21525;-71
2022/02/07 12:04:51;;;;;;;9.50;5.20;;;;;;;;;;1724243;83;21007;-72
2022/02/07 12:07:25;;;;;;;7.37;4.58;;;;;;;;;;1674635;84;21015;-71
2022/02/07 12:09:51;;;;;;;;;;;;;;;;;;1694869;84;21059;-69
2022/02/07 12:12:30;;;;;;;7.65;4.05;;;;;;;;;;1697247;84;20457;-69
2022/02/07 12:15:02;;;;;;;7.65;3.98;;;;;;;;;;1709360;84;21107;-69
2022/02/07 12:18:29;;;;;;;6.10;3.75;;;;;;;;;;1810187;79;24169;-69
2022/02/07 12:20:56;;;;;;;10.63;5.25;;;;;;;;;;1787733;80;21040;-68
2022/02/07 12:23:30;;;;;;;8.05;5.35;;;;;;;;;;1782701;80;21008;-69
2022/02/07 12:26:11;;;;;;;8.03;5.17;;;;;;;;;;1771524;80;21484;-68
2022/02/07 12:28:48;;;;;;;8.23;4.50;;;;;;;;;;1761918;80;21060;-68
2022/02/07 12:31:20;;;;;;;10.28;4.83;;;;;;;;;;1767357;80;21504;-67
2022/02/07 12:33:48;;;;;;;10.72;5.30;;;;;;;;;;1761873;81;21016;-67
2022/02/07 12:36:14;;;;;;;10.53;5.90;;;;;;;;;;1762912;80;20977;-67
2022/02/07 12:38:41;;;;;;;9.43;4.47;;;;;;;;;;1761746;81;21524;-67
2022/02/07 12:41:08;;;;;;;10.90;5.67;;;;;;;;;;1761882;81;21072;-67
2022/02/07 12:43:35;;;;;;;11.12;6.35;;;;;;;;;;1767147;80;20989;-67
2022/02/07 12:46:02;;;;;;;13.30;6.03;;;;;;;;;;1775101;80;21064;-67
2022/02/07 12:48:32;;;;;;;9.55;5.58;;;;;;;;;;1761503;81;21076;-68
2022/02/07 12:50:59;;;;;;;9.18;4.40;;;;;;;;;;1776234;80;21035;-68
2022/02/07 12:53:26;;;;;;;7.87;4.78;;;;;;;;;;1770432;80;21552;-68
2022/02/07 12:55:55;;;;;;;9.53;5.17;;;;;;;;;;1761841;81;21508;-68
2022/02/07 12:58:25;;;;;;;10.08;4.55;;;;;;;;;;1761896;81;21056;-68
2022/02/07 13:00:51;;;;;;;10.80;5.75;;;;;;;;;;1761853;81;21008;-68
2022/02/07 13:03:17;;;;;;;7.55;4.22;;;;;;;;;;1763187;80;20984;-68
2022/02/07 13:05:45;;;;;;;7.37;4.55;;;;;;;;;;1761751;81;21070;-68
2022/02/07 13:08:14;;;;;;;6.53;3.70;;;;;;;;;;1761752;80;21579;-68
2022/02/07 13:10:41;;;;;;;9.48;5.83;;;;;;;;;;1761636;81;21087;-68
2022/02/07 13:13:38;;;;;;;9.30;4.92;;;;;;;;;;1761791;81;21115;-68
2022/02/07 13:15:56;;;;;;;8.63;4.65;;;;;;;;;;1761252;80;20993;-68
2022/02/07 13:18:22;;;;;;;8.68;4.78;;;;;;;;;;1761376;80;21045;-68
2022/02/07 13:20:50;;;;;;;9.25;5.47;;;;;;;;;;1761819;81;21044;-68
2022/02/07 13:23:18;;;;;;;9.70;4.78;;;;;;;;;;1761914;81;21036;-68
2022/02/07 13:25:47;;;;;;;8.63;4.30;;;;;;;;;;1769527;81;21020;-68
2022/02/07 13:28:17;;;;;;;11.38;5.97;;;;;;;;;;1767931;81;21059;-68
2022/02/07 13:30:45;;;;;;;10.93;5.75;;;;;;;;;;1772236;81;21614;-68
2022/02/07 13:33:13;;;;;;;8.20;5.28;;;;;;;;;;1762820;81;21044;-68
2022/02/07 13:35:42;;;;;;;9.53;4.97;;;;;;;;;;1761706;81;21051;-68
2022/02/07 13:38:07;;;;;;;13.43;6.03;;;;;;;;;;1761730;81;21051;-68
2022/02/07 13:40:39;;;;;;;9.88;4.62;;;;;;;;;;1761636;81;21293;-69
2022/02/07 13:43:07;;;;;;;9.20;5.58;;;;;;;;;;1763490;81;21012;-68
2022/02/07 13:45:33;;;;;;;9.53;4.55;;;;;;;;;;1777328;81;21091;-69
2022/02/07 13:48:00;;;;;;;11.75;5.40;;;;;;;;;;1748945;81;20995;-69
2022/02/07 13:50:28;;;;;;;10.45;5.08;;;;;;;;;;1761708;81;20997;-69
2022/02/07 13:52:55;;;;;;;11.75;6.85;;;;;;;;;;1762931;81;21007;-69
2022/02/07 13:55:23;;;;;;;9.83;5.75;;;;;;;;;;1761539;81;21018;-68
2022/02/07 13:57:57;;;;;;;11.83;6.42;;;;;;;;;;1761469;81;21089;-68
2022/02/07 14:00:28;;;;;;;10.43;5.47;;;;;;;;;;1761682;81;21089;-68
2022/02/07 14:03:08;;;;;;;10.28;5.75;;;;;;;;;;1756109;81;21105;-69
2022/02/07 14:05:38;;;;;;;9.90;5.83;;;;;;;;;;1761388;81;21091;-70
2022/02/07 14:08:05;;;;;;;14.23;7.25;;;;;;;;;;1761528;81;20993;-69
2022/02/07 14:10:37;;;;;;;8.08;4.87;;;;;;;;;;1761356;81;21036;-68
2022/02/07 14:13:04;;;;;;;11.75;7.42;;;;;;;;;;1761290;81;21048;-68
2022/02/07 14:15:29;;;;;;;11.83;5.37;;;;;;;;;;1761475;81;21029;-68
2022/02/07 14:17:56;;;;;;;9.90;6.08;;;;;;;;;;1761324;81;21543;-68
2022/02/07 14:20:29;;;;;;;8.75;5.08;;;;;;;;;;1761353;80;21005;-68
2022/02/07 14:22:51;;;;;;;12.45;7.37;;;;;;;;;;1760938;81;21096;-68
2022/02/07 14:25:17;;;;;;;13.68;6.25;;;;;;;;;;1763157;81;21552;-68
2022/02/07 14:27:45;;;;;;;10.08;5.45;;;;;;;;;;1776826;81;21044;-68
2022/02/07 14:30:11;;;;;;;8.63;5.28;;;;;;;;;;1761201;81;21005;-69
2022/02/07 14:32:37;;;;;;;12.07;6.25;;;;;;;;;;1761521;81;21110;-69
2022/02/07 14:35:03;;;;;;;9.63;5.83;;;;;;;;;;1761491;81;21018;-68
2022/02/07 14:37:29;;;;;;;10.93;5.80;;;;;;;;;;1761405;81;21097;-69
2022/02/07 14:39:55;;;;;;;13.32;8.75;;;;;;;;;;1760467;81;21008;-69
2022/02/07 14:42:21;;;;;;;13.53;6.60;;;;;;;;;;1755920;82;21028;-69
2022/02/07 14:44:58;;;;;;;16.37;6.97;;;;;;;;;;1759317;81;21119;-68
2022/02/07 14:47:27;;;;;;;12.63;7.37;;;;;;;;;;1759731;81;21457;-68
2022/02/07 14:49:42;;;;;;;12.70;6.67;;;;;;;;;;1758155;81;20997;-68
2022/02/07 14:52:08;;;;;;;14.75;7.47;;;;;;;;;;1761323;81;21033;-68
2022/02/07 14:54:34;;;;;;;15.08;7.72;;;;;;;;;;1757379;81;21025;-69
2022/02/07 14:57:00;;;;;;;18.90;9.15;;;;;;;;;;1755737;82;21039;-68
2022/02/07 14:59:26;;;;;;;29.30;12.50;;;;;;;;;;1758572;81;21048;-70
2022/02/07 15:01:52;;;;;;;29.87;13.62;;;;;;;;;;1761114;81;21055;-69
2022/02/07 15:04:19;;;;;;;34.08;17.87;;;;;;;;;;1757793;81;21004;-69
2022/02/07 15:06:45;;;;;;;21.10;10.70;;;;;;;;;;1737147;81;20961;-69
2022/02/07 15:09:11;;;;;;;22.62;10.03;;;;;;;;;;1761576;81;21032;-69
2022/02/07 15:11:37;;;;;;;17.15;9.40;;;;;;;;;;1758726;81;21016;-68
2022/02/07 15:14:03;;;;;;;23.98;11.28;;;;;;;;;;1760636;81;22059;-69
2022/02/07 15:16:29;;;;;;;20.25;10.38;;;;;;;;;;1760299;81;21088;-69
2022/02/07 15:18:55;;;;;;;19.00;8.60;;;;;;;;;;1757900;81;21036;-68
2022/02/07 15:21:23;;;;;;;15.38;8.00;;;;;;;;;;1761134;81;21000;-69
2022/02/07 15:23:52;;;;;;;15.72;9.90;;;;;;;;;;1761464;81;21028;-69
2022/02/07 15:26:22;;;;;;;22.80;10.58;;;;;;;;;;1757955;81;21068;-68
2022/02/07 15:28:48;;;;;;;16.73;9.03;;;;;;;;;;1757512;81;21040;-68
2022/02/07 15:31:13;;;;;;;16.67;8.95;;;;;;;;;;1756977;81;21044;-69
2022/02/07 15:33:43;;;;;;;15.45;9.30;;;;;;;;;;1760556;81;21064;-69
2022/02/07 15:36:09;;;;;;;12.82;7.15;;;;;;;;;;1761295;81;21009;-67
2022/02/07 15:38:36;;;;;;;14.28;7.15;;;;;;;;;;1761391;81;21107;-68
2022/02/07 15:41:03;;;;;;;13.58;6.85;;;;;;;;;;1761226;81;21009;-69
2022/02/07 15:43:29;;;;;;;13.83;8.30;;;;;;;;;;1761502;81;21048;-68
2022/02/07 15:45:55;;;;;;;13.50;7.90;;;;;;;;;;1759988;81;20990;-69
2022/02/07 15:48:25;;;;;;;11.83;7.33;;;;;;;;;;1756636;81;21068;-68
2022/02/07 15:50:50;;;;;;;14.68;8.28;;;;;;;;;;1759993;81;21484;-68
2022/02/07 15:53:17;;;;;;;15.68;8.20;;;;;;;;;;1761371;81;21088;-68
2022/02/07 15:55:45;;;;;;;13.30;6.53;;;;;;;;;;1761576;81;21060;-70
2022/02/07 15:58:10;;;;;;;12.33;7.15;;;;;;;;;;1761319;81;21019;-68
2022/02/07 16:00:36;;;;;;;15.80;8.28;;;;;;;;;;1761630;81;22020;-68
2022/02/07 16:03:02;;;;;;;20.72;9.45;;;;;;;;;;1761457;81;20974;-68
2022/02/07 16:05:30;;;;;;;37.28;19.90;;;;;;;;;;1761462;81;21045;-69
2022/02/07 16:08:00;;;;;;;36.95;17.48;;;;;;;;;;1761488;81;21000;-68
2022/02/07 16:10:27;;;;;;;46.58;22.90;;;;;;;;;;1761222;81;21083;-68
2022/02/07 16:13:03;;;;;;;42.65;18.62;;;;;;;;;;1755243;81;20992;-68
2022/02/07 16:15:24;;;;;;;47.43;23.47;;;;;;;;;;1757660;81;21064;-68
2022/02/07 16:17:50;;;;;;;59.33;23.98;;;;;;;;;;1759814;81;21064;-68
2022/02/07 16:20:17;;;;;;;131.00;43.85;;;;;;;;;;1761284;81;21583;-68
2022/02/07 16:22:45;;;;;;;171.85;51.60;;;;;;;;;;1731004;82;21009;-68
2022/02/07 16:25:12;;;;;;;123.25;39.98;;;;;;;;;;1731409;82;21040;-68
2022/02/07 16:27:39;;;;;;;67.03;23.20;;;;;;;;;;1731244;82;21037;-68
2022/02/07 16:30:05;;;;;;;50.45;18.85;;;;;;;;;;1731242;82;22179;-68
2022/02/07 16:32:31;;;;;;;58.95;20.17;;;;;;;;;;1729905;82;21064;-68
2022/02/07 16:34:57;;;;;;;73.45;24.40;;;;;;;;;;1730794;82;21688;-67
2022/02/07 16:37:24;;;;;;;84.13;27.10;;;;;;;;;;1727211;83;21036;-67
2022/02/07 16:39:49;;;;;;;79.67;25.65;;;;;;;;;;1724969;83;21023;-67
2022/02/07 16:42:16;;;;;;;99.55;32.13;;;;;;;;;;1725352;83;21032;-69
2022/02/07 16:44:52;;;;;;;63.90;21.00;;;;;;;;;;1729937;83;21103;-69
2022/02/07 16:47:19;;;;;;;29.87;13.70;;;;;;;;;;1721365;81;21075;-69
2022/02/07 16:49:46;;;;;;;26.45;12.65;;;;;;;;;;1730966;81;21048;-67
2022/02/07 16:52:12;;;;;;;25.15;12.47;;;;;;;;;;1748068;81;21487;-67
2022/02/07 16:54:39;;;;;;;22.48;12.73;;;;;;;;;;1735827;81;21099;-68
2022/02/07 16:57:05;;;;;;;24.30;12.03;;;;;;;;;;1736750;81;21475;-68
2022/02/07 16:59:31;;;;;;;31.30;16.00;;;;;;;;;;1735696;81;21082;-68
2022/02/07 17:01:58;;;;;;;31.48;14.90;;;;;;;;;;1730186;81;21060;-71
2022/02/07 17:04:25;;;;;;;26.68;15.10;;;;;;;;;;1729296;81;21031;-71